sensor_id;sensor_type;location;lat;lon;timestamp;P1;durP1;ratioP1;P2;durP2;ratioP2
68457;SDS011;65384;52.016;5.428;2023-07-31T00:00:10;3.35;;;1.77;;
68457;SDS011;65384;52.016;5.428;2023-07-31T00:02:36;4.65;;;1.80;;
68457;SDS011;65384;52.016;5.428;2023-07-31T00:05:01;5.05;;;2.10;;
68457;SDS011;65384;52.016;5.428;2023-07-31T00:07:27;5.55;;;2.20;;
68457;SDS011;65384;52.016;5.428;2023-07-31T00:09:52;5.70;;;2.60;;
68457;SDS011;65384;52.016;5.428;2023-07-31T00:12:18;7.68;;;2.80;;
68457;SDS011;65384;52.016;5.428;2023-07-31T00:14:44;6.50;;;2.97;;
68457;SDS011;65384;52.016;5.428;2023-07-31T00:17:10;10.48;;;3.35;;
68457;SDS011;65384;52.016;5.428;2023-07-31T00:19:36;10.82;;;4.15;;
68457;SDS011;65384;52.016;5.428;2023-07-31T00:22:01;10.73;;;4.43;;
68457;SDS011;65384;52.016;5.428;2023-07-31T00:24:26;19.98;;;5.00;;
68457;SDS011;65384;52.016;5.428;2023-07-31T00:26:52;19.88;;;5.60;;
68457;SDS011;65384;52.016;5.428;2023-07-31T00:29:17;22.20;;;6.32;;
68457;SDS011;65384;52.016;5.428;2023-07-31T00:31:42;23.92;;;6.40;;
68457;SDS011;65384;52.016;5.428;2023-07-31T00:34:08;32.15;;;6.63;;
68457;SDS011;65384;52.016;5.428;2023-07-31T00:36:33;27.25;;;6.60;;
68457;SDS011;65384;52.016;5.428;2023-07-31T00:38:59;30.85;;;6.97;;
68457;SDS011;65384;52.016;5.428;2023-07-31T00:41:24;30.73;;;7.80;;
68457;SDS011;65384;52.016;5.428;2023-07-31T00:43:49;28.17;;;7.00;;
68457;SDS011;65384;52.016;5.428;2023-07-31T00:46:15;30.58;;;7.15;;
68457;SDS011;65384;52.016;5.428;2023-07-31T00:48:40;32.97;;;6.97;;
68457;SDS011;65384;52.016;5.428;2023-07-31T00:51:06;30.10;;;6.97;;
68457;SDS011;65384;52.016;5.428;2023-07-31T00:53:32;39.47;;;7.88;;
68457;SDS011;65384;52.016;5.428;2023-07-31T00:55:58;30.27;;;7.05;;
68457;SDS011;65384;52.016;5.428;2023-07-31T00:58:24;29.60;;;7.13;;
68457;SDS011;65384;52.016;5.428;2023-07-31T01:00:49;33.55;;;7.05;;
68457;SDS011;65384;52.016;5.428;2023-07-31T01:03:15;30.02;;;7.22;;
68457;SDS011;65384;52.016;5.428;2023-07-31T01:08:22;28.20;;;7.32;;
68457;SDS011;65384;52.016;5.428;2023-07-31T01:10:57;26.90;;;6.68;;
68457;SDS011;65384;52.016;5.428;2023-07-31T01:13:29;22.10;;;6.70;;
68457;SDS011;65384;52.016;5.428;2023-07-31T01:15:55;29.27;;;6.60;;
68457;SDS011;65384;52.016;5.428;2023-07-31T01:18:20;24.90;;;6.30;;
68457;SDS011;65384;52.016;5.428;2023-07-31T01:20:46;24.77;;;6.80;;
68457;SDS011;65384;52.016;5.428;2023-07-31T01:26:19;31.90;;;6.15;;
68457;SDS011;65384;52.016;5.428;2023-07-31T01:31:22;24.50;;;5.72;;
68457;SDS011;65384;52.016;5.428;2023-07-31T01:33:49;29.23;;;6.28;;
68457;SDS011;65384;52.016;5.428;2023-07-31T01:36:15;22.33;;;5.78;;
68457;SDS011;65384;52.016;5.428;2023-07-31T01:38:41;23.92;;;6.13;;
68457;SDS011;65384;52.016;5.428;2023-07-31T01:41:06;25.23;;;6.63;;
68457;SDS011;65384;52.016;5.428;2023-07-31T01:43:32;24.70;;;6.05;;
68457;SDS011;65384;52.016;5.428;2023-07-31T01:45:57;27.70;;;5.90;;
68457;SDS011;65384;52.016;5.428;2023-07-31T01:48:22;26.75;;;5.32;;
68457;SDS011;65384;52.016;5.428;2023-07-31T01:50:48;26.42;;;5.70;;
68457;SDS011;65384;52.016;5.428;2023-07-31T01:53:13;22.58;;;5.55;;
68457;SDS011;65384;52.016;5.428;2023-07-31T01:55:39;31.23;;;5.75;;
68457;SDS011;65384;52.016;5.428;2023-07-31T01:58:05;21.88;;;5.35;;
68457;SDS011;65384;52.016;5.428;2023-07-31T02:00:30;19.20;;;5.75;;
68457;SDS011;65384;52.016;5.428;2023-07-31T02:02:55;20.15;;;4.78;;
68457;SDS011;65384;52.016;5.428;2023-07-31T02:05:21;14.63;;;4.07;;
68457;SDS011;65384;52.016;5.428;2023-07-31T02:07:46;14.77;;;3.65;;
68457;SDS011;65384;52.016;5.428;2023-07-31T02:10:11;15.70;;;3.72;;
68457;SDS011;65384;52.016;5.428;2023-07-31T02:12:37;23.67;;;4.35;;
68457;SDS011;65384;52.016;5.428;2023-07-31T02:15:03;13.32;;;3.30;;
68457;SDS011;65384;52.016;5.428;2023-07-31T02:17:28;12.52;;;3.25;;
68457;SDS011;65384;52.016;5.428;2023-07-31T02:19:54;11.23;;;2.90;;
68457;SDS011;65384;52.016;5.428;2023-07-31T02:22:19;12.32;;;3.10;;
68457;SDS011;65384;52.016;5.428;2023-07-31T02:24:45;13.77;;;3.60;;
68457;SDS011;65384;52.016;5.428;2023-07-31T02:27:10;15.25;;;4.00;;
68457;SDS011;65384;52.016;5.428;2023-07-31T02:29:36;16.63;;;4.18;;
68457;SDS011;65384;52.016;5.428;2023-07-31T02:32:01;20.23;;;4.63;;
68457;SDS011;65384;52.016;5.428;2023-07-31T02:34:26;21.27;;;5.57;;
68457;SDS011;65384;52.016;5.428;2023-07-31T02:36:52;24.08;;;5.60;;
68457;SDS011;65384;52.016;5.428;2023-07-31T02:39:17;22.27;;;5.47;;
68457;SDS011;65384;52.016;5.428;2023-07-31T02:41:43;24.02;;;5.93;;
68457;SDS011;65384;52.016;5.428;2023-07-31T02:44:08;23.90;;;6.22;;
68457;SDS011;65384;52.016;5.428;2023-07-31T02:46:33;17.35;;;5.10;;
68457;SDS011;65384;52.016;5.428;2023-07-31T02:48:59;25.52;;;6.45;;
68457;SDS011;65384;52.016;5.428;2023-07-31T02:51:24;24.88;;;4.90;;
68457;SDS011;65384;52.016;5.428;2023-07-31T02:53:49;25.13;;;5.75;;
68457;SDS011;65384;52.016;5.428;2023-07-31T02:56:15;26.17;;;5.47;;
68457;SDS011;65384;52.016;5.428;2023-07-31T02:58:40;27.30;;;6.28;;
68457;SDS011;65384;52.016;5.428;2023-07-31T03:01:05;24.33;;;6.15;;
68457;SDS011;65384;52.016;5.428;2023-07-31T03:03:31;24.08;;;6.07;;
68457;SDS011;65384;52.016;5.428;2023-07-31T03:05:56;21.70;;;5.90;;
68457;SDS011;65384;52.016;5.428;2023-07-31T03:08:22;23.00;;;5.95;;
68457;SDS011;65384;52.016;5.428;2023-07-31T03:10:47;21.58;;;5.80;;
68457;SDS011;65384;52.016;5.428;2023-07-31T03:13:12;28.45;;;6.57;;
68457;SDS011;65384;52.016;5.428;2023-07-31T03:15:38;24.75;;;5.75;;
68457;SDS011;65384;52.016;5.428;2023-07-31T03:18:03;27.73;;;6.18;;
68457;SDS011;65384;52.016;5.428;2023-07-31T03:20:28;24.20;;;6.07;;
68457;SDS011;65384;52.016;5.428;2023-07-31T03:22:54;23.13;;;5.68;;
68457;SDS011;65384;52.016;5.428;2023-07-31T03:25:19;26.25;;;6.32;;
68457;SDS011;65384;52.016;5.428;2023-07-31T03:27:44;22.50;;;5.30;;
68457;SDS011;65384;52.016;5.428;2023-07-31T03:30:10;18.50;;;6.13;;
68457;SDS011;65384;52.016;5.428;2023-07-31T03:32:35;25.33;;;5.05;;
68457;SDS011;65384;52.016;5.428;2023-07-31T03:35:01;18.80;;;5.07;;
68457;SDS011;65384;52.016;5.428;2023-07-31T03:37:26;25.77;;;6.18;;
68457;SDS011;65384;52.016;5.428;2023-07-31T03:39:52;24.58;;;5.43;;
68457;SDS011;65384;52.016;5.428;2023-07-31T03:42:17;18.08;;;5.15;;
68457;SDS011;65384;52.016;5.428;2023-07-31T03:44:43;22.17;;;5.32;;
68457;SDS011;65384;52.016;5.428;2023-07-31T03:47:08;25.48;;;5.43;;
68457;SDS011;65384;52.016;5.428;2023-07-31T03:49:33;24.05;;;5.47;;
68457;SDS011;65384;52.016;5.428;2023-07-31T03:51:59;24.58;;;5.50;;
68457;SDS011;65384;52.016;5.428;2023-07-31T03:54:24;18.00;;;4.85;;
68457;SDS011;65384;52.016;5.428;2023-07-31T03:56:49;19.85;;;5.10;;
68457;SDS011;65384;52.016;5.428;2023-07-31T03:59:15;20.48;;;4.78;;
68457;SDS011;65384;52.016;5.428;2023-07-31T04:01:40;16.80;;;4.93;;
68457;SDS011;65384;52.016;5.428;2023-07-31T04:04:05;15.63;;;5.13;;
68457;SDS011;65384;52.016;5.428;2023-07-31T04:06:31;20.42;;;5.72;;
68457;SDS011;65384;52.016;5.428;2023-07-31T04:08:56;20.10;;;5.20;;
68457;SDS011;65384;52.016;5.428;2023-07-31T04:11:22;20.25;;;5.18;;
68457;SDS011;65384;52.016;5.428;2023-07-31T04:13:47;22.38;;;5.82;;
68457;SDS011;65384;52.016;5.428;2023-07-31T04:16:12;21.73;;;5.05;;
68457;SDS011;65384;52.016;5.428;2023-07-31T04:18:38;21.85;;;4.72;;
68457;SDS011;65384;52.016;5.428;2023-07-31T04:21:03;21.23;;;5.28;;
68457;SDS011;65384;52.016;5.428;2023-07-31T04:23:28;23.15;;;5.10;;
68457;SDS011;65384;52.016;5.428;2023-07-31T04:25:54;18.73;;;5.50;;
68457;SDS011;65384;52.016;5.428;2023-07-31T04:28:19;18.98;;;4.85;;
68457;SDS011;65384;52.016;5.428;2023-07-31T04:30:45;22.27;;;4.95;;
68457;SDS011;65384;52.016;5.428;2023-07-31T04:33:10;19.88;;;4.85;;
68457;SDS011;65384;52.016;5.428;2023-07-31T04:35:35;17.38;;;5.07;;
68457;SDS011;65384;52.016;5.428;2023-07-31T04:38:01;16.73;;;4.63;;
68457;SDS011;65384;52.016;5.428;2023-07-31T04:40:26;24.73;;;4.97;;
68457;SDS011;65384;52.016;5.428;2023-07-31T04:42:52;20.13;;;4.80;;
68457;SDS011;65384;52.016;5.428;2023-07-31T04:45:17;20.17;;;4.95;;
68457;SDS011;65384;52.016;5.428;2023-07-31T04:47:42;16.83;;;4.93;;
68457;SDS011;65384;52.016;5.428;2023-07-31T04:50:08;19.05;;;4.63;;
68457;SDS011;65384;52.016;5.428;2023-07-31T04:52:33;22.77;;;5.03;;
68457;SDS011;65384;52.016;5.428;2023-07-31T04:54:59;20.42;;;5.07;;
68457;SDS011;65384;52.016;5.428;2023-07-31T04:57:24;21.70;;;4.75;;
68457;SDS011;65384;52.016;5.428;2023-07-31T04:59:49;21.23;;;5.13;;
68457;SDS011;65384;52.016;5.428;2023-07-31T05:02:15;16.25;;;4.60;;
68457;SDS011;65384;52.016;5.428;2023-07-31T05:04:40;17.30;;;4.65;;
68457;SDS011;65384;52.016;5.428;2023-07-31T05:07:06;19.15;;;4.88;;
68457;SDS011;65384;52.016;5.428;2023-07-31T05:09:31;16.33;;;4.85;;
68457;SDS011;65384;52.016;5.428;2023-07-31T05:11:56;16.38;;;4.50;;
68457;SDS011;65384;52.016;5.428;2023-07-31T05:14:22;19.85;;;4.60;;
68457;SDS011;65384;52.016;5.428;2023-07-31T05:16:47;21.63;;;5.00;;
68457;SDS011;65384;52.016;5.428;2023-07-31T05:19:13;14.95;;;4.22;;
68457;SDS011;65384;52.016;5.428;2023-07-31T05:21:38;18.90;;;4.00;;
68457;SDS011;65384;52.016;5.428;2023-07-31T05:24:04;18.70;;;4.50;;
68457;SDS011;65384;52.016;5.428;2023-07-31T05:26:29;14.10;;;5.55;;
68457;SDS011;65384;52.016;5.428;2023-07-31T05:28:55;13.40;;;4.20;;
68457;SDS011;65384;52.016;5.428;2023-07-31T05:31:20;15.13;;;4.05;;
68457;SDS011;65384;52.016;5.428;2023-07-31T05:33:47;14.23;;;3.92;;
68457;SDS011;65384;52.016;5.428;2023-07-31T05:36:12;13.93;;;4.30;;
68457;SDS011;65384;52.016;5.428;2023-07-31T05:38:38;12.32;;;4.00;;
68457;SDS011;65384;52.016;5.428;2023-07-31T05:41:03;11.63;;;3.67;;
68457;SDS011;65384;52.016;5.428;2023-07-31T05:43:28;14.77;;;4.60;;
68457;SDS011;65384;52.016;5.428;2023-07-31T05:45:54;20.13;;;4.70;;
68457;SDS011;65384;52.016;5.428;2023-07-31T05:48:19;21.15;;;5.20;;
68457;SDS011;65384;52.016;5.428;2023-07-31T05:50:44;13.90;;;4.75;;
68457;SDS011;65384;52.016;5.428;2023-07-31T05:53:10;15.68;;;5.13;;
68457;SDS011;65384;52.016;5.428;2023-07-31T05:55:35;19.52;;;5.50;;
68457;SDS011;65384;52.016;5.428;2023-07-31T05:58:01;17.05;;;5.28;;
68457;SDS011;65384;52.016;5.428;2023-07-31T06:00:26;17.60;;;5.20;;
68457;SDS011;65384;52.016;5.428;2023-07-31T06:02:52;16.63;;;5.20;;
68457;SDS011;65384;52.016;5.428;2023-07-31T06:05:18;17.30;;;4.85;;
68457;SDS011;65384;52.016;5.428;2023-07-31T06:07:43;14.57;;;4.97;;
68457;SDS011;65384;52.016;5.428;2023-07-31T06:10:09;17.13;;;5.07;;
68457;SDS011;65384;52.016;5.428;2023-07-31T06:12:34;14.93;;;5.32;;
68457;SDS011;65384;52.016;5.428;2023-07-31T06:15:00;16.33;;;4.70;;
68457;SDS011;65384;52.016;5.428;2023-07-31T06:17:26;15.05;;;4.32;;
68457;SDS011;65384;52.016;5.428;2023-07-31T06:19:52;13.35;;;4.78;;
68457;SDS011;65384;52.016;5.428;2023-07-31T06:22:17;15.73;;;4.65;;
68457;SDS011;65384;52.016;5.428;2023-07-31T06:24:43;11.48;;;4.07;;
68457;SDS011;65384;52.016;5.428;2023-07-31T06:27:09;11.30;;;4.43;;
68457;SDS011;65384;52.016;5.428;2023-07-31T06:29:35;16.75;;;4.07;;
68457;SDS011;65384;52.016;5.428;2023-07-31T06:32:00;15.38;;;4.32;;
68457;SDS011;65384;52.016;5.428;2023-07-31T06:34:26;11.13;;;3.78;;
68457;SDS011;65384;52.016;5.428;2023-07-31T06:36:51;12.93;;;4.38;;
68457;SDS011;65384;52.016;5.428;2023-07-31T06:39:16;11.05;;;3.80;;
68457;SDS011;65384;52.016;5.428;2023-07-31T06:41:42;15.95;;;3.53;;
68457;SDS011;65384;52.016;5.428;2023-07-31T06:44:08;11.82;;;3.88;;
68457;SDS011;65384;52.016;5.428;2023-07-31T06:46:33;11.27;;;3.72;;
68457;SDS011;65384;52.016;5.428;2023-07-31T06:48:58;11.80;;;3.97;;
68457;SDS011;65384;52.016;5.428;2023-07-31T06:51:24;9.57;;;3.70;;
68457;SDS011;65384;52.016;5.428;2023-07-31T06:53:49;7.65;;;3.30;;
68457;SDS011;65384;52.016;5.428;2023-07-31T06:56:15;6.88;;;3.00;;
68457;SDS011;65384;52.016;5.428;2023-07-31T06:58:40;11.98;;;3.40;;
68457;SDS011;65384;52.016;5.428;2023-07-31T07:01:05;6.80;;;3.35;;
68457;SDS011;65384;52.016;5.428;2023-07-31T07:03:31;7.45;;;3.75;;
68457;SDS011;65384;52.016;5.428;2023-07-31T07:05:57;10.25;;;3.47;;
68457;SDS011;65384;52.016;5.428;2023-07-31T07:08:23;9.35;;;4.07;;
68457;SDS011;65384;52.016;5.428;2023-07-31T07:10:49;9.32;;;4.00;;
68457;SDS011;65384;52.016;5.428;2023-07-31T07:13:14;11.60;;;4.03;;
68457;SDS011;65384;52.016;5.428;2023-07-31T07:15:40;10.82;;;4.18;;
68457;SDS011;65384;52.016;5.428;2023-07-31T07:18:05;10.43;;;4.00;;
68457;SDS011;65384;52.016;5.428;2023-07-31T07:20:30;9.60;;;4.60;;
68457;SDS011;65384;52.016;5.428;2023-07-31T07:22:56;10.18;;;3.97;;
68457;SDS011;65384;52.016;5.428;2023-07-31T07:25:21;8.27;;;3.90;;
68457;SDS011;65384;52.016;5.428;2023-07-31T07:27:46;10.95;;;4.38;;
68457;SDS011;65384;52.016;5.428;2023-07-31T07:30:12;10.45;;;4.30;;
68457;SDS011;65384;52.016;5.428;2023-07-31T07:32:39;9.20;;;4.05;;
68457;SDS011;65384;52.016;5.428;2023-07-31T07:35:04;9.35;;;4.00;;
68457;SDS011;65384;52.016;5.428;2023-07-31T07:37:30;11.05;;;4.25;;
68457;SDS011;65384;52.016;5.428;2023-07-31T07:39:55;8.63;;;4.35;;
68457;SDS011;65384;52.016;5.428;2023-07-31T07:42:22;9.43;;;4.60;;
68457;SDS011;65384;52.016;5.428;2023-07-31T07:44:48;10.65;;;4.35;;
68457;SDS011;65384;52.016;5.428;2023-07-31T07:47:13;8.23;;;4.18;;
68457;SDS011;65384;52.016;5.428;2023-07-31T07:49:39;9.15;;;4.55;;
68457;SDS011;65384;52.016;5.428;2023-07-31T07:52:04;10.02;;;5.00;;
68457;SDS011;65384;52.016;5.428;2023-07-31T07:54:30;10.07;;;4.30;;
68457;SDS011;65384;52.016;5.428;2023-07-31T07:56:56;9.98;;;4.18;;
68457;SDS011;65384;52.016;5.428;2023-07-31T07:59:21;7.75;;;4.38;;
68457;SDS011;65384;52.016;5.428;2023-07-31T08:01:46;9.30;;;4.72;;
68457;SDS011;65384;52.016;5.428;2023-07-31T08:04:12;10.50;;;4.90;;
68457;SDS011;65384;52.016;5.428;2023-07-31T08:06:38;9.20;;;4.43;;
68457;SDS011;65384;52.016;5.428;2023-07-31T08:09:03;8.43;;;4.60;;
68457;SDS011;65384;52.016;5.428;2023-07-31T08:11:31;9.80;;;4.70;;
68457;SDS011;65384;52.016;5.428;2023-07-31T08:13:57;6.88;;;4.60;;
68457;SDS011;65384;52.016;5.428;2023-07-31T08:16:22;7.30;;;4.30;;
68457;SDS011;65384;52.016;5.428;2023-07-31T08:18:48;8.65;;;4.13;;
68457;SDS011;65384;52.016;5.428;2023-07-31T08:21:13;8.40;;;4.28;;
68457;SDS011;65384;52.016;5.428;2023-07-31T08:23:40;7.95;;;4.05;;
68457;SDS011;65384;52.016;5.428;2023-07-31T08:26:05;7.13;;;3.88;;
68457;SDS011;65384;52.016;5.428;2023-07-31T08:28:30;7.35;;;3.70;;
68457;SDS011;65384;52.016;5.428;2023-07-31T08:30:56;8.02;;;4.10;;
68457;SDS011;65384;52.016;5.428;2023-07-31T08:33:21;7.30;;;3.83;;
68457;SDS011;65384;52.016;5.428;2023-07-31T08:35:46;6.45;;;3.97;;
68457;SDS011;65384;52.016;5.428;2023-07-31T08:38:12;4.90;;;2.47;;
68457;SDS011;65384;52.016;5.428;2023-07-31T08:40:38;6.63;;;3.70;;
68457;SDS011;65384;52.016;5.428;2023-07-31T08:43:03;6.90;;;4.18;;
68457;SDS011;65384;52.016;5.428;2023-07-31T08:45:29;6.78;;;3.88;;
68457;SDS011;65384;52.016;5.428;2023-07-31T08:47:55;7.32;;;3.80;;
68457;SDS011;65384;52.016;5.428;2023-07-31T08:50:21;6.90;;;3.78;;
68457;SDS011;65384;52.016;5.428;2023-07-31T08:52:47;6.50;;;3.78;;
68457;SDS011;65384;52.016;5.428;2023-07-31T08:55:13;7.68;;;3.83;;
68457;SDS011;65384;52.016;5.428;2023-07-31T08:57:39;6.15;;;3.55;;
68457;SDS011;65384;52.016;5.428;2023-07-31T09:00:05;6.15;;;3.45;;
68457;SDS011;65384;52.016;5.428;2023-07-31T09:05:41;5.88;;;3.35;;
68457;SDS011;65384;52.016;5.428;2023-07-31T09:08:09;7.47;;;3.90;;
68457;SDS011;65384;52.016;5.428;2023-07-31T09:10:37;7.75;;;3.65;;
68457;SDS011;65384;52.016;5.428;2023-07-31T09:13:06;6.05;;;3.88;;
68457;SDS011;65384;52.016;5.428;2023-07-31T09:15:31;6.85;;;3.78;;
68457;SDS011;65384;52.016;5.428;2023-07-31T09:17:58;6.03;;;3.78;;
68457;SDS011;65384;52.016;5.428;2023-07-31T09:20:25;5.00;;;3.25;;
68457;SDS011;65384;52.016;5.428;2023-07-31T09:22:50;8.90;;;4.45;;
68457;SDS011;65384;52.016;5.428;2023-07-31T09:25:17;6.05;;;3.90;;
68457;SDS011;65384;52.016;5.428;2023-07-31T09:27:48;8.88;;;4.10;;
68457;SDS011;65384;52.016;5.428;2023-07-31T09:30:14;6.28;;;3.75;;
68457;SDS011;65384;52.016;5.428;2023-07-31T09:32:40;7.95;;;4.47;;
68457;SDS011;65384;52.016;5.428;2023-07-31T09:35:21;10.68;;;4.65;;
68457;SDS011;65384;52.016;5.428;2023-07-31T09:37:51;8.40;;;4.43;;
68457;SDS011;65384;52.016;5.428;2023-07-31T09:42:56;9.68;;;4.70;;
68457;SDS011;65384;52.016;5.428;2023-07-31T09:45:25;10.18;;;4.80;;
68457;SDS011;65384;52.016;5.428;2023-07-31T09:47:51;9.55;;;4.93;;
68457;SDS011;65384;52.016;5.428;2023-07-31T09:50:17;9.93;;;4.82;;
68457;SDS011;65384;52.016;5.428;2023-07-31T09:52:42;7.93;;;5.07;;
68457;SDS011;65384;52.016;5.428;2023-07-31T09:55:08;10.90;;;5.20;;
68457;SDS011;65384;52.016;5.428;2023-07-31T09:57:36;9.98;;;4.82;;
68457;SDS011;65384;52.016;5.428;2023-07-31T10:00:05;9.30;;;4.75;;
68457;SDS011;65384;52.016;5.428;2023-07-31T10:02:31;8.18;;;4.43;;
68457;SDS011;65384;52.016;5.428;2023-07-31T10:04:57;11.18;;;5.35;;
68457;SDS011;65384;52.016;5.428;2023-07-31T10:07:25;11.23;;;5.72;;
68457;SDS011;65384;52.016;5.428;2023-07-31T10:09:51;10.30;;;5.40;;
68457;SDS011;65384;52.016;5.428;2023-07-31T10:12:16;9.00;;;4.60;;
68457;SDS011;65384;52.016;5.428;2023-07-31T10:14:44;9.20;;;5.32;;
68457;SDS011;65384;52.016;5.428;2023-07-31T10:17:09;9.65;;;5.45;;
68457;SDS011;65384;52.016;5.428;2023-07-31T10:19:35;11.65;;;6.55;;
68457;SDS011;65384;52.016;5.428;2023-07-31T10:22:02;16.35;;;5.50;;
68457;SDS011;65384;52.016;5.428;2023-07-31T10:24:28;11.30;;;6.18;;
68457;SDS011;65384;52.016;5.428;2023-07-31T10:26:55;8.45;;;5.30;;
68457;SDS011;65384;52.016;5.428;2023-07-31T10:29:22;11.88;;;5.35;;
68457;SDS011;65384;52.016;5.428;2023-07-31T10:31:49;7.68;;;4.63;;
68457;SDS011;65384;52.016;5.428;2023-07-31T10:34:15;8.77;;;4.75;;
68457;SDS011;65384;52.016;5.428;2023-07-31T10:36:41;10.05;;;5.05;;
68457;SDS011;65384;52.016;5.428;2023-07-31T10:39:06;7.43;;;4.53;;
68457;SDS011;65384;52.016;5.428;2023-07-31T10:42:11;9.07;;;4.63;;
68457;SDS011;65384;52.016;5.428;2023-07-31T10:44:37;9.95;;;4.43;;
68457;SDS011;65384;52.016;5.428;2023-07-31T10:47:03;9.93;;;4.30;;
68457;SDS011;65384;52.016;5.428;2023-07-31T10:49:28;7.47;;;4.03;;
68457;SDS011;65384;52.016;5.428;2023-07-31T10:51:56;6.68;;;3.42;;
68457;SDS011;65384;52.016;5.428;2023-07-31T10:54:22;7.43;;;3.50;;
68457;SDS011;65384;52.016;5.428;2023-07-31T10:56:50;7.75;;;3.40;;
68457;SDS011;65384;52.016;5.428;2023-07-31T10:59:15;9.25;;;4.00;;
68457;SDS011;65384;52.016;5.428;2023-07-31T11:01:53;9.60;;;4.63;;
68457;SDS011;65384;52.016;5.428;2023-07-31T11:04:26;7.70;;;4.00;;
68457;SDS011;65384;52.016;5.428;2023-07-31T11:06:58;4.78;;;2.38;;
68457;SDS011;65384;52.016;5.428;2023-07-31T11:09:29;9.40;;;3.63;;
68457;SDS011;65384;52.016;5.428;2023-07-31T11:11:55;8.82;;;3.70;;
68457;SDS011;65384;52.016;5.428;2023-07-31T11:14:21;9.18;;;3.50;;
68457;SDS011;65384;52.016;5.428;2023-07-31T11:16:49;7.53;;;3.78;;
68457;SDS011;65384;52.016;5.428;2023-07-31T11:19:18;10.07;;;4.22;;
68457;SDS011;65384;52.016;5.428;2023-07-31T11:21:46;8.20;;;4.50;;
68457;SDS011;65384;52.016;5.428;2023-07-31T11:24:13;8.95;;;4.40;;
68457;SDS011;65384;52.016;5.428;2023-07-31T11:26:38;8.50;;;4.28;;
68457;SDS011;65384;52.016;5.428;2023-07-31T11:29:10;8.20;;;4.53;;
68457;SDS011;65384;52.016;5.428;2023-07-31T11:34:06;9.52;;;3.53;;
68457;SDS011;65384;52.016;5.428;2023-07-31T11:36:32;8.57;;;4.13;;
68457;SDS011;65384;52.016;5.428;2023-07-31T11:39:04;7.47;;;4.05;;
68457;SDS011;65384;52.016;5.428;2023-07-31T11:41:33;7.53;;;4.13;;
68457;SDS011;65384;52.016;5.428;2023-07-31T11:44:01;10.20;;;4.45;;
68457;SDS011;65384;52.016;5.428;2023-07-31T11:46:27;10.57;;;4.70;;
68457;SDS011;65384;52.016;5.428;2023-07-31T11:48:58;6.80;;;3.90;;
68457;SDS011;65384;52.016;5.428;2023-07-31T11:51:24;10.45;;;4.13;;
68457;SDS011;65384;52.016;5.428;2023-07-31T11:53:54;8.40;;;4.03;;
68457;SDS011;65384;52.016;5.428;2023-07-31T11:56:21;6.10;;;3.53;;
68457;SDS011;65384;52.016;5.428;2023-07-31T11:58:58;5.30;;;3.00;;
68457;SDS011;65384;52.016;5.428;2023-07-31T12:01:24;6.07;;;3.00;;
68457;SDS011;65384;52.016;5.428;2023-07-31T12:03:52;6.47;;;3.22;;
68457;SDS011;65384;52.016;5.428;2023-07-31T12:06:18;5.25;;;3.05;;
68457;SDS011;65384;52.016;5.428;2023-07-31T12:08:45;5.15;;;3.10;;
68457;SDS011;65384;52.016;5.428;2023-07-31T12:11:11;5.60;;;3.05;;
68457;SDS011;65384;52.016;5.428;2023-07-31T12:13:36;5.93;;;2.83;;
68457;SDS011;65384;52.016;5.428;2023-07-31T12:16:03;4.57;;;3.20;;
68457;SDS011;65384;52.016;5.428;2023-07-31T12:18:29;4.22;;;2.70;;
68457;SDS011;65384;52.016;5.428;2023-07-31T12:20:59;6.93;;;2.92;;
68457;SDS011;65384;52.016;5.428;2023-07-31T12:23:30;4.30;;;2.90;;
68457;SDS011;65384;52.016;5.428;2023-07-31T12:26:13;5.65;;;3.45;;
68457;SDS011;65384;52.016;5.428;2023-07-31T12:28:46;6.25;;;3.63;;
68457;SDS011;65384;52.016;5.428;2023-07-31T12:31:14;5.72;;;4.00;;
68457;SDS011;65384;52.016;5.428;2023-07-31T12:33:44;7.53;;;4.45;;
68457;SDS011;65384;52.016;5.428;2023-07-31T12:38:36;7.28;;;4.35;;
68457;SDS011;65384;52.016;5.428;2023-07-31T12:41:02;9.30;;;4.90;;
68457;SDS011;65384;52.016;5.428;2023-07-31T12:43:27;9.25;;;4.88;;
68457;SDS011;65384;52.016;5.428;2023-07-31T12:45:56;8.93;;;4.68;;
68457;SDS011;65384;52.016;5.428;2023-07-31T12:48:21;9.43;;;5.13;;
68457;SDS011;65384;52.016;5.428;2023-07-31T12:50:47;12.77;;;5.93;;
68457;SDS011;65384;52.016;5.428;2023-07-31T12:53:12;7.97;;;4.68;;
68457;SDS011;65384;52.016;5.428;2023-07-31T12:55:38;10.07;;;5.78;;
68457;SDS011;65384;52.016;5.428;2023-07-31T12:58:03;8.65;;;5.68;;
68457;SDS011;65384;52.016;5.428;2023-07-31T13:00:29;9.57;;;5.63;;
68457;SDS011;65384;52.016;5.428;2023-07-31T13:02:54;10.05;;;6.05;;
68457;SDS011;65384;52.016;5.428;2023-07-31T13:05:20;9.98;;;5.80;;
68457;SDS011;65384;52.016;5.428;2023-07-31T13:07:46;8.43;;;5.63;;
68457;SDS011;65384;52.016;5.428;2023-07-31T13:10:12;9.35;;;5.70;;
68457;SDS011;65384;52.016;5.428;2023-07-31T13:12:37;9.52;;;6.10;;
68457;SDS011;65384;52.016;5.428;2023-07-31T13:15:06;12.05;;;5.97;;
68457;SDS011;65384;52.016;5.428;2023-07-31T13:17:32;9.32;;;6.03;;
68457;SDS011;65384;52.016;5.428;2023-07-31T13:19:58;8.90;;;6.10;;
68457;SDS011;65384;52.016;5.428;2023-07-31T13:22:23;9.82;;;6.47;;
68457;SDS011;65384;52.016;5.428;2023-07-31T13:24:49;12.25;;;6.72;;
68457;SDS011;65384;52.016;5.428;2023-07-31T13:27:14;12.60;;;6.47;;
68457;SDS011;65384;52.016;5.428;2023-07-31T13:29:43;11.50;;;6.50;;
68457;SDS011;65384;52.016;5.428;2023-07-31T13:32:09;13.38;;;5.97;;
68457;SDS011;65384;52.016;5.428;2023-07-31T13:34:34;13.85;;;6.45;;
68457;SDS011;65384;52.016;5.428;2023-07-31T13:37:00;13.48;;;6.05;;
68457;SDS011;65384;52.016;5.428;2023-07-31T13:39:25;13.73;;;6.68;;
68457;SDS011;65384;52.016;5.428;2023-07-31T13:41:50;13.43;;;6.50;;
68457;SDS011;65384;52.016;5.428;2023-07-31T13:44:16;15.13;;;7.00;;
68457;SDS011;65384;52.016;5.428;2023-07-31T13:46:41;12.10;;;6.30;;
68457;SDS011;65384;52.016;5.428;2023-07-31T13:49:06;11.80;;;7.30;;
68457;SDS011;65384;52.016;5.428;2023-07-31T13:51:32;13.40;;;7.53;;
68457;SDS011;65384;52.016;5.428;2023-07-31T13:53:57;13.27;;;7.55;;
68457;SDS011;65384;52.016;5.428;2023-07-31T13:56:23;15.70;;;7.28;;
68457;SDS011;65384;52.016;5.428;2023-07-31T13:58:48;14.70;;;8.27;;
68457;SDS011;65384;52.016;5.428;2023-07-31T14:01:13;14.90;;;7.50;;
68457;SDS011;65384;52.016;5.428;2023-07-31T14:03:39;19.20;;;9.20;;
68457;SDS011;65384;52.016;5.428;2023-07-31T14:06:04;19.63;;;9.05;;
68457;SDS011;65384;52.016;5.428;2023-07-31T14:08:29;18.48;;;8.60;;
68457;SDS011;65384;52.016;5.428;2023-07-31T14:10:55;15.38;;;8.32;;
68457;SDS011;65384;52.016;5.428;2023-07-31T14:13:21;17.92;;;8.35;;
68457;SDS011;65384;52.016;5.428;2023-07-31T14:15:46;17.63;;;8.57;;
68457;SDS011;65384;52.016;5.428;2023-07-31T14:18:11;14.15;;;7.22;;
68457;SDS011;65384;52.016;5.428;2023-07-31T14:20:37;15.68;;;7.05;;
68457;SDS011;65384;52.016;5.428;2023-07-31T14:23:02;15.60;;;7.00;;
68457;SDS011;65384;52.016;5.428;2023-07-31T14:25:28;16.30;;;7.25;;
68457;SDS011;65384;52.016;5.428;2023-07-31T14:27:53;15.60;;;6.82;;
68457;SDS011;65384;52.016;5.428;2023-07-31T14:30:19;20.10;;;7.72;;
68457;SDS011;65384;52.016;5.428;2023-07-31T14:32:45;17.38;;;7.40;;
68457;SDS011;65384;52.016;5.428;2023-07-31T14:35:10;12.38;;;6.15;;
68457;SDS011;65384;52.016;5.428;2023-07-31T14:37:36;10.52;;;5.32;;
68457;SDS011;65384;52.016;5.428;2023-07-31T14:40:05;11.63;;;5.32;;
68457;SDS011;65384;52.016;5.428;2023-07-31T14:42:32;13.30;;;5.57;;
68457;SDS011;65384;52.016;5.428;2023-07-31T14:44:57;9.85;;;4.95;;
68457;SDS011;65384;52.016;5.428;2023-07-31T14:47:22;13.23;;;5.53;;
68457;SDS011;65384;52.016;5.428;2023-07-31T14:49:48;13.57;;;5.47;;